Worland Municipal Airport
KWRL : rendu visible

Aérodrome :











RETROUVEZ-NOUS SUR...

 
LOGIN :

S'inscrire | Disclaimer

   EN    FR    IT 

 









Légende :    VFR   VFR Marginal   IFR   IFR Intensif   IFR Très Intensif
Visi : 
Plafond : 
>= 8 km
>= 3000ft
5 à 8 km
1000 à 3000 ft
1500m à 5 km
500 à 1000 ft
800 à 1500m
200 à 500 ft
< 800m
< 200 ft
Symboles :   Orages  Brouillard  Fortes neiges  Fortes précipitations  Vent > 20 kt






- Altitude de l'aérodrome : 4227 ft
- Code IATA : WRL


KWRL - Worland Municipal

DERNIER METAR :
  • 072253Z AUTO 33014G23KT 10SM CLR 34/03 A2984 RMK AO2 SLP056 T03440028

METARs EXPIRÉS :
  • 072153Z AUTO 30009G16KT 10SM CLR 36/02 A2983 RMK AO2 SLP049 T03610017
  • 072053Z AUTO 31006KT 10SM CLR 36/02 A2984 RMK AO2 SLP050 T03560017 56012

TAF KWRL
Valide du 07 à 18h jusqu'au 08 à 18h UTC


071724Z 0718/0818 01004KT P6SM SKC
FM072000 34010G20KT P6SM VCTS SCT080CB BKN150
FM080100 35005KT P6SM SCT150
FM080800 VRB04KT P6SM SKC
FM081700 28007KT P6SM SKC
FIR KZLC / Amérique du Nord



MET'MAP, la Météo Aéronautique d'un coup d'oeil ! - Copyright ORBIFLY Décembre 2007 - Disclaimer

ORBIFLY MET'MAP TEAM :

Programmation & Développement : Alexandra Zaïnal
Sur une idée originale de : Baudouin d'Aumeries
Assistance à la programmation : Marc-Olivier Méhu
Soutien technique & logistique : Manuel Goepfert

Contact : metmap@orbifly.com




SOURCES & CREDITS :

   NOAA       Earth
Advisory